Pagina principale
METAR-TAF:

METAR-TAF

Aeroporti :

Aeroporto di Venezia-Tessera

Venezia, Italia

latitudine: 45-30N, longitudine: 012-20E, altezza: 2 m

Osservazione

Il bollettino è stato emesso 18 minuti fa, alle 15:50 UTC
Vento 9 kt da est/sud-est
Temperature 26°C
Umidità 45%
Pressione 1012 hPa
Visibilità 10 km o più
nessuna nube inferiore a 1500 m e nessun cumulonembo

METAR: LIPZ 131550Z 11009KT CAVOK 26/13 Q1012 NOSIG

Ora: 18:08 (16:08 UTC)

Previsione

Il bollettino è stato emesso 5 ore e 8 minuti fa, alle 11:00 UTC
Previsione valida dal 13 alle 12 UTC al 14 alle 18 UTC
Vento 10 kt da est/sud-est
Visibilità 10 km o più
Nubi sparse ad un'altezza di 7000 ft
Evoluzione graduale
dal 13 alle 16 UTC al 13 alle 18 UTC
Vento 5 kt da direzioni variabili
Evoluzione graduale
dal 14 alle 08 UTC al 14 alle 10 UTC
Vento 10 kt da sud/sud-est

TAF: LIPZ 131100Z 1312/1418 12010KT 9999 SCT070 BECMG 1316/1318 VRB05KT BECMG 1408/1410 16010KT

Osservazioni e previsioni meteorologiche di più di 4000 aeroporti (messaggi METAR e TAF).

Le stazioni disponibili sono rappresentate dai dischi gialli e rossi sulla carta.

Puntare il mouse per vedere il nome della stazione.

Clicca sopra per visualizzare le osservazioni e previsioni meteorologiche.

Per cambiare la mappa : fare clic sui pulsanti verdi con una croce nera per ingrandire, il pulsante verde con un trattino per diminuire, o sulla freccia verde per le mappe adiacenti.


METAR-TAF: